sensor_id;sensor_type;location;lat;lon;timestamp;temperature;humidity
59651;DHT22;45954;49.768;8.636;2022-08-21T00:02:25;19.60;86.50
59651;DHT22;45954;49.768;8.636;2022-08-21T00:04:54;19.70;86.10
59651;DHT22;45954;49.768;8.636;2022-08-21T00:07:20;19.80;85.80
59651;DHT22;45954;49.768;8.636;2022-08-21T00:09:47;19.70;86.50
59651;DHT22;45954;49.768;8.636;2022-08-21T00:12:13;19.90;86.20
59651;DHT22;45954;49.768;8.636;2022-08-21T00:14:39;19.90;85.60
59651;DHT22;45954;49.768;8.636;2022-08-21T00:17:06;19.80;86.00
59651;DHT22;45954;49.768;8.636;2022-08-21T00:19:33;19.80;86.10
59651;DHT22;45954;49.768;8.636;2022-08-21T00:21:59;19.70;86.40
59651;DHT22;45954;49.768;8.636;2022-08-21T00:24:26;19.90;87.00
59651;DHT22;45954;49.768;8.636;2022-08-21T00:26:52;19.80;86.50
59651;DHT22;45954;49.768;8.636;2022-08-21T00:29:18;19.90;86.50
59651;DHT22;45954;49.768;8.636;2022-08-21T00:31:45;20.00;86.20
59651;DHT22;45954;49.768;8.636;2022-08-21T00:34:12;20.10;86.10
59651;DHT22;45954;49.768;8.636;2022-08-21T00:36:39;20.10;85.80
59651;DHT22;45954;49.768;8.636;2022-08-21T00:39:07;20.10;86.40
59651;DHT22;45954;49.768;8.636;2022-08-21T00:41:40;19.60;87.20
59651;DHT22;45954;49.768;8.636;2022-08-21T00:44:09;19.50;87.50
59651;DHT22;45954;49.768;8.636;2022-08-21T00:46:37;19.60;87.30
59651;DHT22;45954;49.768;8.636;2022-08-21T00:49:06;19.70;87.10
59651;DHT22;45954;49.768;8.636;2022-08-21T00:51:55;19.40;88.10
59651;DHT22;45954;49.768;8.636;2022-08-21T00:54:26;19.60;87.80
59651;DHT22;45954;49.768;8.636;2022-08-21T00:56:57;19.60;87.60
59651;DHT22;45954;49.768;8.636;2022-08-21T00:59:28;19.50;87.90
59651;DHT22;45954;49.768;8.636;2022-08-21T01:01:58;19.40;88.10
59651;DHT22;45954;49.768;8.636;2022-08-21T01:04:24;19.40;88.30
59651;DHT22;45954;49.768;8.636;2022-08-21T01:06:50;19.60;87.90
59651;DHT22;45954;49.768;8.636;2022-08-21T01:09:17;19.50;88.00
59651;DHT22;45954;49.768;8.636;2022-08-21T01:11:45;19.50;88.20
59651;DHT22;45954;49.768;8.636;2022-08-21T01:14:13;19.60;87.60
59651;DHT22;45954;49.768;8.636;2022-08-21T01:16:45;19.30;88.50
59651;DHT22;45954;49.768;8.636;2022-08-21T01:19:13;19.50;88.30
59651;DHT22;45954;49.768;8.636;2022-08-21T01:21:40;19.30;88.80
59651;DHT22;45954;49.768;8.636;2022-08-21T01:24:07;19.20;89.40
59651;DHT22;45954;49.768;8.636;2022-08-21T01:26:34;19.30;89.20
59651;DHT22;45954;49.768;8.636;2022-08-21T01:32:12;18.70;90.30
59651;DHT22;45954;49.768;8.636;2022-08-21T01:34:43;18.90;90.10
59651;DHT22;45954;49.768;8.636;2022-08-21T01:37:11;18.90;90.00
59651;DHT22;45954;49.768;8.636;2022-08-21T01:39:38;18.80;90.10
59651;DHT22;45954;49.768;8.636;2022-08-21T01:42:05;18.90;90.10
59651;DHT22;45954;49.768;8.636;2022-08-21T01:44:31;18.80;90.20
59651;DHT22;45954;49.768;8.636;2022-08-21T01:47:00;18.80;90.20
59651;DHT22;45954;49.768;8.636;2022-08-21T01:49:28;18.90;90.20
59651;DHT22;45954;49.768;8.636;2022-08-21T01:51:54;18.80;90.20
59651;DHT22;45954;49.768;8.636;2022-08-21T01:54:20;18.80;90.30
59651;DHT22;45954;49.768;8.636;2022-08-21T01:56:50;18.60;90.40
59651;DHT22;45954;49.768;8.636;2022-08-21T01:59:18;18.50;90.80
59651;DHT22;45954;49.768;8.636;2022-08-21T02:01:44;18.50;90.80
59651;DHT22;45954;49.768;8.636;2022-08-21T02:04:11;18.50;90.90
59651;DHT22;45954;49.768;8.636;2022-08-21T02:06:37;18.40;91.10
59651;DHT22;45954;49.768;8.636;2022-08-21T02:09:06;18.20;91.40
59651;DHT22;45954;49.768;8.636;2022-08-21T02:11:35;18.00;91.70
59651;DHT22;45954;49.768;8.636;2022-08-21T02:14:02;18.30;91.40
59651;DHT22;45954;49.768;8.636;2022-08-21T02:16:28;18.40;91.00
59651;DHT22;45954;49.768;8.636;2022-08-21T02:18:54;18.30;91.40
59651;DHT22;45954;49.768;8.636;2022-08-21T02:21:20;18.50;91.20
59651;DHT22;45954;49.768;8.636;2022-08-21T02:23:46;18.30;91.30
59651;DHT22;45954;49.768;8.636;2022-08-21T02:26:12;18.30;91.40
59651;DHT22;45954;49.768;8.636;2022-08-21T02:28:39;18.30;91.40
59651;DHT22;45954;49.768;8.636;2022-08-21T02:31:06;18.20;91.60
59651;DHT22;45954;49.768;8.636;2022-08-21T02:33:33;18.50;91.40
59651;DHT22;45954;49.768;8.636;2022-08-21T02:35:59;18.30;91.50
59651;DHT22;45954;49.768;8.636;2022-08-21T02:38:29;17.90;92.20
59651;DHT22;45954;49.768;8.636;2022-08-21T02:40:57;18.10;91.70
59651;DHT22;45954;49.768;8.636;2022-08-21T02:43:25;18.20;91.70
59651;DHT22;45954;49.768;8.636;2022-08-21T02:45:55;18.30;91.70
59651;DHT22;45954;49.768;8.636;2022-08-21T02:48:25;18.40;91.60
59651;DHT22;45954;49.768;8.636;2022-08-21T02:51:06;18.40;91.60
59651;DHT22;45954;49.768;8.636;2022-08-21T02:53:34;18.30;91.60
59651;DHT22;45954;49.768;8.636;2022-08-21T02:56:04;18.00;92.10
59651;DHT22;45954;49.768;8.636;2022-08-21T02:58:37;18.00;92.30
59651;DHT22;45954;49.768;8.636;2022-08-21T03:01:06;18.10;92.10
59651;DHT22;45954;49.768;8.636;2022-08-21T03:03:35;18.30;91.80
59651;DHT22;45954;49.768;8.636;2022-08-21T03:06:06;18.00;92.20
59651;DHT22;45954;49.768;8.636;2022-08-21T03:08:34;18.10;92.20
59651;DHT22;45954;49.768;8.636;2022-08-21T03:11:00;18.10;92.20
59651;DHT22;45954;49.768;8.636;2022-08-21T03:13:27;18.20;92.10
59651;DHT22;45954;49.768;8.636;2022-08-21T03:15:54;18.30;91.80
59651;DHT22;45954;49.768;8.636;2022-08-21T03:18:21;18.10;92.10
59651;DHT22;45954;49.768;8.636;2022-08-21T03:20:48;18.00;92.10
59651;DHT22;45954;49.768;8.636;2022-08-21T03:23:15;17.80;92.60
59651;DHT22;45954;49.768;8.636;2022-08-21T03:25:43;17.70;92.80
59651;DHT22;45954;49.768;8.636;2022-08-21T03:28:14;17.70;92.80
59651;DHT22;45954;49.768;8.636;2022-08-21T03:30:46;17.90;92.70
59651;DHT22;45954;49.768;8.636;2022-08-21T03:33:14;17.80;93.00
59651;DHT22;45954;49.768;8.636;2022-08-21T03:35:41;17.70;92.80
59651;DHT22;45954;49.768;8.636;2022-08-21T03:38:08;17.70;92.90
59651;DHT22;45954;49.768;8.636;2022-08-21T03:40:34;17.70;92.90
59651;DHT22;45954;49.768;8.636;2022-08-21T03:43:00;17.60;93.00
59651;DHT22;45954;49.768;8.636;2022-08-21T03:45:26;17.70;93.00
59651;DHT22;45954;49.768;8.636;2022-08-21T03:47:57;17.70;92.80
59651;DHT22;45954;49.768;8.636;2022-08-21T03:50:29;17.70;92.90
59651;DHT22;45954;49.768;8.636;2022-08-21T03:52:58;17.40;93.40
59651;DHT22;45954;49.768;8.636;2022-08-21T03:55:25;17.40;93.30
59651;DHT22;45954;49.768;8.636;2022-08-21T03:57:51;17.40;93.30
59651;DHT22;45954;49.768;8.636;2022-08-21T04:00:19;17.40;93.30
59651;DHT22;45954;49.768;8.636;2022-08-21T04:02:46;17.40;93.20
59651;DHT22;45954;49.768;8.636;2022-08-21T04:05:14;17.40;93.30
59651;DHT22;45954;49.768;8.636;2022-08-21T04:08:04;17.20;93.60
59651;DHT22;45954;49.768;8.636;2022-08-21T04:10:32;17.40;93.40
59651;DHT22;45954;49.768;8.636;2022-08-21T04:13:02;17.60;93.20
59651;DHT22;45954;49.768;8.636;2022-08-21T04:15:29;17.60;93.20
59651;DHT22;45954;49.768;8.636;2022-08-21T04:17:55;17.70;93.00
59651;DHT22;45954;49.768;8.636;2022-08-21T04:20:22;17.60;93.00
59651;DHT22;45954;49.768;8.636;2022-08-21T04:22:49;17.60;93.10
59651;DHT22;45954;49.768;8.636;2022-08-21T04:25:16;17.60;93.20
59651;DHT22;45954;49.768;8.636;2022-08-21T04:27:44;17.60;93.10
59651;DHT22;45954;49.768;8.636;2022-08-21T04:30:11;17.40;93.30
59651;DHT22;45954;49.768;8.636;2022-08-21T04:32:42;17.50;93.20
59651;DHT22;45954;49.768;8.636;2022-08-21T04:35:10;17.70;93.10
59651;DHT22;45954;49.768;8.636;2022-08-21T04:37:37;17.40;93.50
59651;DHT22;45954;49.768;8.636;2022-08-21T04:40:05;17.30;93.60
59651;DHT22;45954;49.768;8.636;2022-08-21T04:42:32;17.30;93.70
59651;DHT22;45954;49.768;8.636;2022-08-21T04:44:58;17.10;94.00
59651;DHT22;45954;49.768;8.636;2022-08-21T04:47:24;17.30;93.80
59651;DHT22;45954;49.768;8.636;2022-08-21T04:49:51;17.30;93.70
59651;DHT22;45954;49.768;8.636;2022-08-21T04:52:20;17.40;93.50
59651;DHT22;45954;49.768;8.636;2022-08-21T04:54:49;17.50;93.40
59651;DHT22;45954;49.768;8.636;2022-08-21T04:57:17;17.60;93.20
59651;DHT22;45954;49.768;8.636;2022-08-21T04:59:50;17.60;93.40
59651;DHT22;45954;49.768;8.636;2022-08-21T05:02:17;17.60;93.30
59651;DHT22;45954;49.768;8.636;2022-08-21T05:04:51;17.60;93.20
59651;DHT22;45954;49.768;8.636;2022-08-21T05:07:28;17.40;93.60
59651;DHT22;45954;49.768;8.636;2022-08-21T05:09:55;17.40;93.80
59651;DHT22;45954;49.768;8.636;2022-08-21T05:12:22;17.40;94.00
59651;DHT22;45954;49.768;8.636;2022-08-21T05:14:48;17.50;93.70
59651;DHT22;45954;49.768;8.636;2022-08-21T05:17:14;17.70;93.40
59651;DHT22;45954;49.768;8.636;2022-08-21T05:19:40;17.60;93.70
59651;DHT22;45954;49.768;8.636;2022-08-21T05:22:06;17.70;93.50
59651;DHT22;45954;49.768;8.636;2022-08-21T05:24:32;17.90;93.40
59651;DHT22;45954;49.768;8.636;2022-08-21T05:26:59;18.10;93.10
59651;DHT22;45954;49.768;8.636;2022-08-21T05:29:25;18.00;93.40
59651;DHT22;45954;49.768;8.636;2022-08-21T05:31:52;18.20;93.20
59651;DHT22;45954;49.768;8.636;2022-08-21T05:34:20;18.40;93.10
59651;DHT22;45954;49.768;8.636;2022-08-21T05:36:47;18.60;92.90
59651;DHT22;45954;49.768;8.636;2022-08-21T05:39:14;18.80;92.60
59651;DHT22;45954;49.768;8.636;2022-08-21T05:41:41;18.80;92.30
59651;DHT22;45954;49.768;8.636;2022-08-21T05:44:06;18.80;92.50
59651;DHT22;45954;49.768;8.636;2022-08-21T05:46:32;19.00;92.40
59651;DHT22;45954;49.768;8.636;2022-08-21T05:48:58;19.00;92.40
59651;DHT22;45954;49.768;8.636;2022-08-21T05:51:24;19.20;92.20
59651;DHT22;45954;49.768;8.636;2022-08-21T05:53:50;19.20;92.10
59651;DHT22;45954;49.768;8.636;2022-08-21T05:56:16;19.10;92.50
59651;DHT22;45954;49.768;8.636;2022-08-21T05:58:42;19.00;92.40
59651;DHT22;45954;49.768;8.636;2022-08-21T06:01:08;19.10;92.50
59651;DHT22;45954;49.768;8.636;2022-08-21T06:03:37;19.20;92.50
59651;DHT22;45954;49.768;8.636;2022-08-21T06:06:05;19.40;92.60
59651;DHT22;45954;49.768;8.636;2022-08-21T06:08:31;19.50;92.50
59651;DHT22;45954;49.768;8.636;2022-08-21T06:10:59;19.60;92.50
59651;DHT22;45954;49.768;8.636;2022-08-21T06:13:27;19.70;92.30
59651;DHT22;45954;49.768;8.636;2022-08-21T06:16:02;19.90;92.10
59651;DHT22;45954;49.768;8.636;2022-08-21T06:18:28;20.00;91.80
59651;DHT22;45954;49.768;8.636;2022-08-21T06:20:54;20.10;91.80
59651;DHT22;45954;49.768;8.636;2022-08-21T06:23:19;20.10;91.70
59651;DHT22;45954;49.768;8.636;2022-08-21T06:25:45;20.20;91.60
59651;DHT22;45954;49.768;8.636;2022-08-21T06:28:11;20.20;91.50
59651;DHT22;45954;49.768;8.636;2022-08-21T06:30:38;20.30;91.60
59651;DHT22;45954;49.768;8.636;2022-08-21T06:33:05;20.30;90.20
59651;DHT22;45954;49.768;8.636;2022-08-21T06:35:32;20.00;90.70
59651;DHT22;45954;49.768;8.636;2022-08-21T06:37:58;20.30;91.20
59651;DHT22;45954;49.768;8.636;2022-08-21T06:40:26;20.40;91.10
59651;DHT22;45954;49.768;8.636;2022-08-21T06:42:52;20.30;90.40
59651;DHT22;45954;49.768;8.636;2022-08-21T06:45:18;20.50;90.80
59651;DHT22;45954;49.768;8.636;2022-08-21T06:47:45;20.70;90.70
59651;DHT22;45954;49.768;8.636;2022-08-21T06:50:11;20.70;90.90
59651;DHT22;45954;49.768;8.636;2022-08-21T06:52:38;20.80;90.30
59651;DHT22;45954;49.768;8.636;2022-08-21T06:55:08;20.80;89.90
59651;DHT22;45954;49.768;8.636;2022-08-21T06:57:34;20.80;90.30
59651;DHT22;45954;49.768;8.636;2022-08-21T07:00:05;20.90;90.30
59651;DHT22;45954;49.768;8.636;2022-08-21T07:02:32;21.00;90.60
59651;DHT22;45954;49.768;8.636;2022-08-21T07:04:59;21.20;90.20
59651;DHT22;45954;49.768;8.636;2022-08-21T07:07:25;21.20;90.20
59651;DHT22;45954;49.768;8.636;2022-08-21T07:09:50;21.40;90.40
59651;DHT22;45954;49.768;8.636;2022-08-21T07:12:16;21.40;90.20
59651;DHT22;45954;49.768;8.636;2022-08-21T07:14:42;21.60;89.30
59651;DHT22;45954;49.768;8.636;2022-08-21T07:17:08;21.60;89.00
59651;DHT22;45954;49.768;8.636;2022-08-21T07:19:34;21.60;88.10
59651;DHT22;45954;49.768;8.636;2022-08-21T07:22:02;21.50;88.60
59651;DHT22;45954;49.768;8.636;2022-08-21T07:24:28;21.70;88.30
59651;DHT22;45954;49.768;8.636;2022-08-21T07:26:55;21.90;88.10
59651;DHT22;45954;49.768;8.636;2022-08-21T07:29:21;22.10;88.10
59651;DHT22;45954;49.768;8.636;2022-08-21T07:31:46;22.20;87.50
59651;DHT22;45954;49.768;8.636;2022-08-21T07:34:13;22.30;87.60
59651;DHT22;45954;49.768;8.636;2022-08-21T07:36:38;22.30;87.40
59651;DHT22;45954;49.768;8.636;2022-08-21T07:39:04;22.50;87.00
59651;DHT22;45954;49.768;8.636;2022-08-21T07:41:30;22.50;86.70
59651;DHT22;45954;49.768;8.636;2022-08-21T07:43:58;22.70;86.80
59651;DHT22;45954;49.768;8.636;2022-08-21T07:46:25;22.80;85.80
59651;DHT22;45954;49.768;8.636;2022-08-21T07:48:52;22.70;86.60
59651;DHT22;45954;49.768;8.636;2022-08-21T07:51:19;22.70;86.30
59651;DHT22;45954;49.768;8.636;2022-08-21T07:53:49;22.50;85.40
59651;DHT22;45954;49.768;8.636;2022-08-21T07:56:15;22.40;86.40
59651;DHT22;45954;49.768;8.636;2022-08-21T07:58:42;22.50;87.10
59651;DHT22;45954;49.768;8.636;2022-08-21T08:01:08;22.70;86.50
59651;DHT22;45954;49.768;8.636;2022-08-21T08:03:34;22.60;85.90
59651;DHT22;45954;49.768;8.636;2022-08-21T08:06:00;22.50;86.20
59651;DHT22;45954;49.768;8.636;2022-08-21T08:08:26;22.80;86.50
59651;DHT22;45954;49.768;8.636;2022-08-21T08:10:54;23.10;85.30
59651;DHT22;45954;49.768;8.636;2022-08-21T08:13:22;23.20;85.30
59651;DHT22;45954;49.768;8.636;2022-08-21T08:15:48;23.30;84.70
59651;DHT22;45954;49.768;8.636;2022-08-21T08:18:14;23.50;84.10
59651;DHT22;45954;49.768;8.636;2022-08-21T08:20:40;23.10;85.00
59651;DHT22;45954;49.768;8.636;2022-08-21T08:23:09;23.40;84.80
59651;DHT22;45954;49.768;8.636;2022-08-21T08:25:36;23.70;84.40
59651;DHT22;45954;49.768;8.636;2022-08-21T08:28:02;23.60;84.10
59651;DHT22;45954;49.768;8.636;2022-08-21T08:30:30;23.40;84.60
59651;DHT22;45954;49.768;8.636;2022-08-21T08:32:56;23.40;84.80
59651;DHT22;45954;49.768;8.636;2022-08-21T08:35:23;23.60;84.90
59651;DHT22;45954;49.768;8.636;2022-08-21T08:37:51;23.90;84.20
59651;DHT22;45954;49.768;8.636;2022-08-21T08:43:55;24.10;83.60
59651;DHT22;45954;49.768;8.636;2022-08-21T08:46:41;23.90;84.30
59651;DHT22;45954;49.768;8.636;2022-08-21T08:49:23;24.00;84.80
59651;DHT22;45954;49.768;8.636;2022-08-21T08:54:44;24.30;83.80
59651;DHT22;45954;49.768;8.636;2022-08-21T08:57:18;24.10;84.00
59651;DHT22;45954;49.768;8.636;2022-08-21T08:59:50;24.10;84.40
59651;DHT22;45954;49.768;8.636;2022-08-21T09:02:18;24.30;84.20
59651;DHT22;45954;49.768;8.636;2022-08-21T09:04:47;24.40;84.40
59651;DHT22;45954;49.768;8.636;2022-08-21T09:11:15;24.40;83.20
59651;DHT22;45954;49.768;8.636;2022-08-21T09:14:17;24.40;82.90
59651;DHT22;45954;49.768;8.636;2022-08-21T09:17:04;24.80;82.60
59651;DHT22;45954;49.768;8.636;2022-08-21T09:20:18;25.10;78.70
59651;DHT22;45954;49.768;8.636;2022-08-21T09:28:37;24.80;77.80
59651;DHT22;45954;49.768;8.636;2022-08-21T09:31:07;24.80;75.70
59651;DHT22;45954;49.768;8.636;2022-08-21T09:33:36;25.10;76.90
59651;DHT22;45954;49.768;8.636;2022-08-21T09:36:02;25.40;77.10
59651;DHT22;45954;49.768;8.636;2022-08-21T09:38:35;25.70;76.70
59651;DHT22;45954;49.768;8.636;2022-08-21T09:41:06;25.80;75.10
59651;DHT22;45954;49.768;8.636;2022-08-21T09:43:35;25.20;75.70
59651;DHT22;45954;49.768;8.636;2022-08-21T09:46:09;25.00;76.80
59651;DHT22;45954;49.768;8.636;2022-08-21T09:48:46;25.40;78.50
59651;DHT22;45954;49.768;8.636;2022-08-21T09:51:17;25.50;77.30
59651;DHT22;45954;49.768;8.636;2022-08-21T09:53:57;25.60;74.80
59651;DHT22;45954;49.768;8.636;2022-08-21T09:56:38;25.60;74.30
59651;DHT22;45954;49.768;8.636;2022-08-21T09:59:36;25.90;70.60
59651;DHT22;45954;49.768;8.636;2022-08-21T10:05:15;26.20;71.70
59651;DHT22;45954;49.768;8.636;2022-08-21T10:07:43;26.60;70.40
59651;DHT22;45954;49.768;8.636;2022-08-21T10:10:19;26.30;72.50
59651;DHT22;45954;49.768;8.636;2022-08-21T10:21:17;25.10;73.70
59651;DHT22;45954;49.768;8.636;2022-08-21T10:29:39;25.90;71.00
59651;DHT22;45954;49.768;8.636;2022-08-21T10:32:29;26.00;70.50
59651;DHT22;45954;49.768;8.636;2022-08-21T10:40:39;27.40;68.40
59651;DHT22;45954;49.768;8.636;2022-08-21T10:49:13;27.20;69.20
59651;DHT22;45954;49.768;8.636;2022-08-21T10:58:11;27.20;68.60
59651;DHT22;45954;49.768;8.636;2022-08-21T11:00:49;26.70;68.40
59651;DHT22;45954;49.768;8.636;2022-08-21T11:03:31;26.70;69.00
59651;DHT22;45954;49.768;8.636;2022-08-21T11:06:25;26.90;65.90
59651;DHT22;45954;49.768;8.636;2022-08-21T11:08:58;26.70;66.40
59651;DHT22;45954;49.768;8.636;2022-08-21T11:11:39;26.90;65.80
59651;DHT22;45954;49.768;8.636;2022-08-21T11:17:27;27.50;65.10
59651;DHT22;45954;49.768;8.636;2022-08-21T11:22:41;27.90;63.40
59651;DHT22;45954;49.768;8.636;2022-08-21T11:25:35;27.60;64.70
59651;DHT22;45954;49.768;8.636;2022-08-21T11:28:21;27.20;64.90
59651;DHT22;45954;49.768;8.636;2022-08-21T11:37:12;28.60;62.90
59651;DHT22;45954;49.768;8.636;2022-08-21T11:42:49;28.40;63.80
59651;DHT22;45954;49.768;8.636;2022-08-21T11:45:41;28.30;63.00
59651;DHT22;45954;49.768;8.636;2022-08-21T11:51:22;27.80;65.70
59651;DHT22;45954;49.768;8.636;2022-08-21T11:57:06;28.30;63.90
59651;DHT22;45954;49.768;8.636;2022-08-21T12:02:38;28.40;63.70
59651;DHT22;45954;49.768;8.636;2022-08-21T12:05:42;28.80;64.40
59651;DHT22;45954;49.768;8.636;2022-08-21T12:08:36;29.10;62.80
59651;DHT22;45954;49.768;8.636;2022-08-21T12:16:37;29.30;61.20
59651;DHT22;45954;49.768;8.636;2022-08-21T12:19:14;29.10;60.30
59651;DHT22;45954;49.768;8.636;2022-08-21T12:21:59;28.70;61.10
59651;DHT22;45954;49.768;8.636;2022-08-21T12:24:48;28.60;60.90
59651;DHT22;45954;49.768;8.636;2022-08-21T12:27:39;29.10;61.50
59651;DHT22;45954;49.768;8.636;2022-08-21T12:30:34;28.40;60.80
59651;DHT22;45954;49.768;8.636;2022-08-21T12:33:16;28.70;61.70
59651;DHT22;45954;49.768;8.636;2022-08-21T12:35:48;29.10;60.00
59651;DHT22;45954;49.768;8.636;2022-08-21T12:38:23;29.50;59.10
59651;DHT22;45954;49.768;8.636;2022-08-21T12:41:14;29.80;59.10
59651;DHT22;45954;49.768;8.636;2022-08-21T12:43:51;29.80;58.50
59651;DHT22;45954;49.768;8.636;2022-08-21T12:46:32;29.90;57.50
59651;DHT22;45954;49.768;8.636;2022-08-21T12:49:14;29.50;59.30
59651;DHT22;45954;49.768;8.636;2022-08-21T12:52:14;30.00;57.00
59651;DHT22;45954;49.768;8.636;2022-08-21T12:54:46;30.60;56.60
59651;DHT22;45954;49.768;8.636;2022-08-21T12:57:28;30.30;56.40
59651;DHT22;45954;49.768;8.636;2022-08-21T12:59:58;30.30;55.80
59651;DHT22;45954;49.768;8.636;2022-08-21T13:02:32;29.90;55.50
59651;DHT22;45954;49.768;8.636;2022-08-21T13:05:07;29.80;56.20
59651;DHT22;45954;49.768;8.636;2022-08-21T13:07:37;29.50;56.30
59651;DHT22;45954;49.768;8.636;2022-08-21T13:10:05;29.90;56.50
59651;DHT22;45954;49.768;8.636;2022-08-21T13:12:36;30.10;56.00
59651;DHT22;45954;49.768;8.636;2022-08-21T13:15:05;29.40;56.40
59651;DHT22;45954;49.768;8.636;2022-08-21T13:17:36;29.70;56.00
59651;DHT22;45954;49.768;8.636;2022-08-21T13:20:09;30.20;56.60
59651;DHT22;45954;49.768;8.636;2022-08-21T13:22:44;30.80;56.50
59651;DHT22;45954;49.768;8.636;2022-08-21T13:25:16;30.10;55.60
59651;DHT22;45954;49.768;8.636;2022-08-21T13:27:58;30.00;56.50
59651;DHT22;45954;49.768;8.636;2022-08-21T13:30:32;30.70;56.40
59651;DHT22;45954;49.768;8.636;2022-08-21T13:33:01;31.00;54.90
59651;DHT22;45954;49.768;8.636;2022-08-21T13:35:45;31.50;55.70
59651;DHT22;45954;49.768;8.636;2022-08-21T13:38:33;31.20;53.90
59651;DHT22;45954;49.768;8.636;2022-08-21T13:41:19;30.30;53.90
59651;DHT22;45954;49.768;8.636;2022-08-21T13:43:57;30.70;53.90
59651;DHT22;45954;49.768;8.636;2022-08-21T13:46:31;31.10;55.30
59651;DHT22;45954;49.768;8.636;2022-08-21T13:49:01;31.40;52.50
59651;DHT22;45954;49.768;8.636;2022-08-21T13:51:30;30.80;52.40
59651;DHT22;45954;49.768;8.636;2022-08-21T13:53:57;30.50;53.30
59651;DHT22;45954;49.768;8.636;2022-08-21T13:56:33;31.10;53.00
59651;DHT22;45954;49.768;8.636;2022-08-21T13:59:07;31.20;54.00
59651;DHT22;45954;49.768;8.636;2022-08-21T14:01:48;31.00;53.00
59651;DHT22;45954;49.768;8.636;2022-08-21T14:04:31;32.10;52.30
59651;DHT22;45954;49.768;8.636;2022-08-21T14:07:00;31.50;53.20
59651;DHT22;45954;49.768;8.636;2022-08-21T14:09:31;32.20;52.20
59651;DHT22;45954;49.768;8.636;2022-08-21T14:12:04;33.10;51.30
59651;DHT22;45954;49.768;8.636;2022-08-21T14:14:40;34.00;52.40
59651;DHT22;45954;49.768;8.636;2022-08-21T14:17:10;34.70;50.10
59651;DHT22;45954;49.768;8.636;2022-08-21T14:19:45;34.00;49.00
59651;DHT22;45954;49.768;8.636;2022-08-21T14:25:13;33.30;50.00
59651;DHT22;45954;49.768;8.636;2022-08-21T14:28:41;33.80;50.10
59651;DHT22;45954;49.768;8.636;2022-08-21T14:30:46;33.50;48.10
59651;DHT22;45954;49.768;8.636;2022-08-21T14:33:30;33.50;50.10
59651;DHT22;45954;49.768;8.636;2022-08-21T14:35:58;33.10;48.20
59651;DHT22;45954;49.768;8.636;2022-08-21T14:38:27;32.30;49.50
59651;DHT22;45954;49.768;8.636;2022-08-21T14:41:07;33.50;51.10
59651;DHT22;45954;49.768;8.636;2022-08-21T14:43:37;34.40;47.40
59651;DHT22;45954;49.768;8.636;2022-08-21T14:46:03;34.60;47.80
59651;DHT22;45954;49.768;8.636;2022-08-21T14:48:29;33.50;48.70
59651;DHT22;45954;49.768;8.636;2022-08-21T14:50:54;32.60;48.10
59651;DHT22;45954;49.768;8.636;2022-08-21T14:53:20;31.80;49.30
59651;DHT22;45954;49.768;8.636;2022-08-21T14:55:46;32.10;49.20
59651;DHT22;45954;49.768;8.636;2022-08-21T14:58:31;32.70;48.80
59651;DHT22;45954;49.768;8.636;2022-08-21T15:00:58;32.70;48.00
59651;DHT22;45954;49.768;8.636;2022-08-21T15:03:28;32.40;48.40
59651;DHT22;45954;49.768;8.636;2022-08-21T15:05:57;33.10;47.90
59651;DHT22;45954;49.768;8.636;2022-08-21T15:08:23;32.70;48.20
59651;DHT22;45954;49.768;8.636;2022-08-21T15:10:52;33.40;47.70
59651;DHT22;45954;49.768;8.636;2022-08-21T15:13:19;34.10;46.70
59651;DHT22;45954;49.768;8.636;2022-08-21T15:15:48;34.20;48.70
59651;DHT22;45954;49.768;8.636;2022-08-21T15:18:19;34.40;45.90
59651;DHT22;45954;49.768;8.636;2022-08-21T15:20:45;33.50;46.50
59651;DHT22;45954;49.768;8.636;2022-08-21T15:23:12;34.20;46.90
59651;DHT22;45954;49.768;8.636;2022-08-21T15:25:42;35.00;45.60
59651;DHT22;45954;49.768;8.636;2022-08-21T15:28:10;35.40;45.60
59651;DHT22;45954;49.768;8.636;2022-08-21T15:30:39;35.10;45.80
59651;DHT22;45954;49.768;8.636;2022-08-21T15:33:07;34.40;46.90
59651;DHT22;45954;49.768;8.636;2022-08-21T15:35:33;34.30;45.70
59651;DHT22;45954;49.768;8.636;2022-08-21T15:37:59;34.40;45.90
59651;DHT22;45954;49.768;8.636;2022-08-21T15:40:26;34.20;45.90
59651;DHT22;45954;49.768;8.636;2022-08-21T15:42:58;34.50;45.50
59651;DHT22;45954;49.768;8.636;2022-08-21T15:45:26;33.80;46.50
59651;DHT22;45954;49.768;8.636;2022-08-21T15:47:54;33.60;46.20
59651;DHT22;45954;49.768;8.636;2022-08-21T15:50:21;33.50;46.10
59651;DHT22;45954;49.768;8.636;2022-08-21T15:52:49;33.10;46.20
59651;DHT22;45954;49.768;8.636;2022-08-21T15:55:15;33.70;47.10
59651;DHT22;45954;49.768;8.636;2022-08-21T15:57:47;34.70;46.50
59651;DHT22;45954;49.768;8.636;2022-08-21T16:00:21;35.00;45.40
59651;DHT22;45954;49.768;8.636;2022-08-21T16:02:52;35.40;46.20
59651;DHT22;45954;49.768;8.636;2022-08-21T16:05:20;35.30;45.00
59651;DHT22;45954;49.768;8.636;2022-08-21T16:07:49;35.50;44.40
59651;DHT22;45954;49.768;8.636;2022-08-21T16:10:18;34.70;45.20
59651;DHT22;45954;49.768;8.636;2022-08-21T16:13:01;35.30;44.50
59651;DHT22;45954;49.768;8.636;2022-08-21T16:15:29;34.70;45.30
59651;DHT22;45954;49.768;8.636;2022-08-21T16:17:55;35.40;45.60
59651;DHT22;45954;49.768;8.636;2022-08-21T16:20:26;35.90;44.70
59651;DHT22;45954;49.768;8.636;2022-08-21T16:22:56;36.50;44.20
59651;DHT22;45954;49.768;8.636;2022-08-21T16:25:22;36.30;43.50
59651;DHT22;45954;49.768;8.636;2022-08-21T16:28:00;36.40;44.10
59651;DHT22;45954;49.768;8.636;2022-08-21T16:30:29;35.90;43.60
59651;DHT22;45954;49.768;8.636;2022-08-21T16:32:56;34.80;44.60
59651;DHT22;45954;49.768;8.636;2022-08-21T16:35:22;35.20;44.10
59651;DHT22;45954;49.768;8.636;2022-08-21T16:37:49;35.90;44.40
59651;DHT22;45954;49.768;8.636;2022-08-21T16:40:15;35.80;44.00
59651;DHT22;45954;49.768;8.636;2022-08-21T16:42:42;36.30;45.90
59651;DHT22;45954;49.768;8.636;2022-08-21T16:45:17;36.70;44.20
59651;DHT22;45954;49.768;8.636;2022-08-21T16:47:45;36.50;43.80
59651;DHT22;45954;49.768;8.636;2022-08-21T16:50:16;36.60;43.50
59651;DHT22;45954;49.768;8.636;2022-08-21T16:52:45;36.20;43.70
59651;DHT22;45954;49.768;8.636;2022-08-21T16:55:11;35.50;43.60
59651;DHT22;45954;49.768;8.636;2022-08-21T16:57:37;35.50;44.80
59651;DHT22;45954;49.768;8.636;2022-08-21T17:00:05;34.90;44.40
59651;DHT22;45954;49.768;8.636;2022-08-21T17:02:43;33.80;45.00
59651;DHT22;45954;49.768;8.636;2022-08-21T17:05:11;33.20;45.10
59651;DHT22;45954;49.768;8.636;2022-08-21T17:07:38;33.00;45.90
59651;DHT22;45954;49.768;8.636;2022-08-21T17:10:06;33.40;46.20
59651;DHT22;45954;49.768;8.636;2022-08-21T17:12:34;33.20;45.50
59651;DHT22;45954;49.768;8.636;2022-08-21T17:15:11;33.10;46.60
59651;DHT22;45954;49.768;8.636;2022-08-21T17:17:42;33.30;46.60
59651;DHT22;45954;49.768;8.636;2022-08-21T17:20:09;33.10;46.00